sensor_id;sensor_type;location;lat;lon;timestamp;temperature;humidity
59556;DHT22;45374;52.746;6.304;2023-03-14T00:01:51;10.20;99.90
59556;DHT22;45374;52.746;6.304;2023-03-14T00:04:17;10.20;99.90
59556;DHT22;45374;52.746;6.304;2023-03-14T00:06:42;10.30;99.90
59556;DHT22;45374;52.746;6.304;2023-03-14T00:09:08;10.30;99.90
59556;DHT22;45374;52.746;6.304;2023-03-14T00:11:34;10.30;99.90
59556;DHT22;45374;52.746;6.304;2023-03-14T00:13:59;10.30;99.90
59556;DHT22;45374;52.746;6.304;2023-03-14T00:16:26;10.30;99.90
59556;DHT22;45374;52.746;6.304;2023-03-14T00:18:51;10.30;99.90
59556;DHT22;45374;52.746;6.304;2023-03-14T00:21:18;10.40;99.90
59556;DHT22;45374;52.746;6.304;2023-03-14T00:23:44;10.60;99.90
59556;DHT22;45374;52.746;6.304;2023-03-14T00:26:15;10.60;99.90
59556;DHT22;45374;52.746;6.304;2023-03-14T00:28:42;10.60;99.90
59556;DHT22;45374;52.746;6.304;2023-03-14T00:31:09;10.70;99.90
59556;DHT22;45374;52.746;6.304;2023-03-14T00:33:35;10.70;99.90
59556;DHT22;45374;52.746;6.304;2023-03-14T00:36:04;10.60;99.90
59556;DHT22;45374;52.746;6.304;2023-03-14T00:38:31;10.60;99.90
59556;DHT22;45374;52.746;6.304;2023-03-14T00:40:58;10.60;99.90
59556;DHT22;45374;52.746;6.304;2023-03-14T00:43:24;10.50;99.90
59556;DHT22;45374;52.746;6.304;2023-03-14T00:45:51;10.50;99.90
59556;DHT22;45374;52.746;6.304;2023-03-14T00:48:18;10.40;99.90
59556;DHT22;45374;52.746;6.304;2023-03-14T00:50:45;10.40;99.90
59556;DHT22;45374;52.746;6.304;2023-03-14T00:53:11;10.30;99.90
59556;DHT22;45374;52.746;6.304;2023-03-14T00:55:37;10.30;99.90
59556;DHT22;45374;52.746;6.304;2023-03-14T00:58:03;10.30;99.90
59556;DHT22;45374;52.746;6.304;2023-03-14T01:00:28;10.30;99.90
59556;DHT22;45374;52.746;6.304;2023-03-14T01:02:54;10.30;99.90
59556;DHT22;45374;52.746;6.304;2023-03-14T01:05:21;10.30;99.90
59556;DHT22;45374;52.746;6.304;2023-03-14T01:07:47;10.30;99.90
59556;DHT22;45374;52.746;6.304;2023-03-14T01:10:13;10.30;99.90
59556;DHT22;45374;52.746;6.304;2023-03-14T01:12:38;10.40;99.90
59556;DHT22;45374;52.746;6.304;2023-03-14T01:15:04;10.30;99.90
59556;DHT22;45374;52.746;6.304;2023-03-14T01:17:30;10.30;99.90
59556;DHT22;45374;52.746;6.304;2023-03-14T01:19:55;10.20;99.90
59556;DHT22;45374;52.746;6.304;2023-03-14T01:22:21;10.20;99.90
59556;DHT22;45374;52.746;6.304;2023-03-14T01:24:47;10.00;99.90
59556;DHT22;45374;52.746;6.304;2023-03-14T01:27:12;9.90;99.90
59556;DHT22;45374;52.746;6.304;2023-03-14T01:29:38;9.90;99.90
59556;DHT22;45374;52.746;6.304;2023-03-14T01:32:04;9.80;99.90
59556;DHT22;45374;52.746;6.304;2023-03-14T01:34:29;9.80;99.90
59556;DHT22;45374;52.746;6.304;2023-03-14T01:36:55;9.80;99.90
59556;DHT22;45374;52.746;6.304;2023-03-14T01:39:21;9.70;99.90
59556;DHT22;45374;52.746;6.304;2023-03-14T01:41:46;9.80;99.90
59556;DHT22;45374;52.746;6.304;2023-03-14T01:44:12;9.70;99.90
59556;DHT22;45374;52.746;6.304;2023-03-14T01:46:43;9.80;99.90
59556;DHT22;45374;52.746;6.304;2023-03-14T01:49:29;9.80;99.90
59556;DHT22;45374;52.746;6.304;2023-03-14T01:54:42;9.80;99.90
59556;DHT22;45374;52.746;6.304;2023-03-14T01:57:18;9.70;99.90
59556;DHT22;45374;52.746;6.304;2023-03-14T02:00:06;9.70;99.90
59556;DHT22;45374;52.746;6.304;2023-03-14T02:03:10;9.70;99.90
59556;DHT22;45374;52.746;6.304;2023-03-14T02:05:39;9.70;99.90
59556;DHT22;45374;52.746;6.304;2023-03-14T02:08:10;9.70;99.90
59556;DHT22;45374;52.746;6.304;2023-03-14T02:10:43;9.70;99.90
59556;DHT22;45374;52.746;6.304;2023-03-14T02:13:10;9.70;99.90
59556;DHT22;45374;52.746;6.304;2023-03-14T02:15:37;9.70;99.90
59556;DHT22;45374;52.746;6.304;2023-03-14T02:18:04;9.70;99.90
59556;DHT22;45374;52.746;6.304;2023-03-14T02:21:01;9.80;99.90
59556;DHT22;45374;52.746;6.304;2023-03-14T02:26:22;9.90;99.90
59556;DHT22;45374;52.746;6.304;2023-03-14T02:28:49;9.80;99.90
59556;DHT22;45374;52.746;6.304;2023-03-14T02:31:16;9.70;99.90
59556;DHT22;45374;52.746;6.304;2023-03-14T02:33:41;9.70;99.90
59556;DHT22;45374;52.746;6.304;2023-03-14T02:36:12;9.60;99.90
59556;DHT22;45374;52.746;6.304;2023-03-14T02:38:49;9.60;99.90
59556;DHT22;45374;52.746;6.304;2023-03-14T02:41:17;9.60;99.90
59556;DHT22;45374;52.746;6.304;2023-03-14T02:43:43;9.60;99.90
59556;DHT22;45374;52.746;6.304;2023-03-14T02:46:12;9.50;99.90
59556;DHT22;45374;52.746;6.304;2023-03-14T02:48:48;9.50;99.90
59556;DHT22;45374;52.746;6.304;2023-03-14T02:51:15;9.40;99.90
59556;DHT22;45374;52.746;6.304;2023-03-14T02:53:41;9.40;99.90
59556;DHT22;45374;52.746;6.304;2023-03-14T02:56:08;9.30;99.90
59556;DHT22;45374;52.746;6.304;2023-03-14T02:58:34;9.30;99.90
59556;DHT22;45374;52.746;6.304;2023-03-14T03:01:00;9.20;99.90
59556;DHT22;45374;52.746;6.304;2023-03-14T03:03:26;9.20;99.90
59556;DHT22;45374;52.746;6.304;2023-03-14T03:05:53;9.20;99.90
59556;DHT22;45374;52.746;6.304;2023-03-14T03:08:21;9.10;99.90
59556;DHT22;45374;52.746;6.304;2023-03-14T03:10:47;9.10;99.90
59556;DHT22;45374;52.746;6.304;2023-03-14T03:13:13;9.10;99.90
59556;DHT22;45374;52.746;6.304;2023-03-14T03:15:39;9.10;99.90
59556;DHT22;45374;52.746;6.304;2023-03-14T03:18:05;9.20;99.90
59556;DHT22;45374;52.746;6.304;2023-03-14T03:20:31;9.20;99.90
59556;DHT22;45374;52.746;6.304;2023-03-14T03:22:58;9.20;99.90
59556;DHT22;45374;52.746;6.304;2023-03-14T03:25:24;9.10;99.90
59556;DHT22;45374;52.746;6.304;2023-03-14T03:27:50;9.20;99.90
59556;DHT22;45374;52.746;6.304;2023-03-14T03:30:15;9.10;99.90
59556;DHT22;45374;52.746;6.304;2023-03-14T03:32:41;9.10;99.90
59556;DHT22;45374;52.746;6.304;2023-03-14T03:35:07;9.20;99.90
59556;DHT22;45374;52.746;6.304;2023-03-14T03:37:33;9.00;99.90
59556;DHT22;45374;52.746;6.304;2023-03-14T03:39:59;9.10;99.90
59556;DHT22;45374;52.746;6.304;2023-03-14T03:42:26;9.00;99.90
59556;DHT22;45374;52.746;6.304;2023-03-14T03:44:52;9.00;99.90
59556;DHT22;45374;52.746;6.304;2023-03-14T03:47:18;8.90;99.90
59556;DHT22;45374;52.746;6.304;2023-03-14T03:49:43;9.10;99.90
59556;DHT22;45374;52.746;6.304;2023-03-14T03:52:09;9.10;99.90
59556;DHT22;45374;52.746;6.304;2023-03-14T03:54:35;9.00;99.90
59556;DHT22;45374;52.746;6.304;2023-03-14T03:57:00;9.10;99.90
59556;DHT22;45374;52.746;6.304;2023-03-14T03:59:26;9.10;99.90
59556;DHT22;45374;52.746;6.304;2023-03-14T04:01:51;9.10;99.90
59556;DHT22;45374;52.746;6.304;2023-03-14T04:04:17;9.10;99.90
59556;DHT22;45374;52.746;6.304;2023-03-14T04:06:43;9.00;99.90
59556;DHT22;45374;52.746;6.304;2023-03-14T04:09:09;9.00;99.90
59556;DHT22;45374;52.746;6.304;2023-03-14T04:11:35;9.00;99.90
59556;DHT22;45374;52.746;6.304;2023-03-14T04:14:01;9.10;99.90
59556;DHT22;45374;52.746;6.304;2023-03-14T04:16:27;9.10;99.90
59556;DHT22;45374;52.746;6.304;2023-03-14T04:18:52;8.90;99.90
59556;DHT22;45374;52.746;6.304;2023-03-14T04:21:18;9.00;99.90
59556;DHT22;45374;52.746;6.304;2023-03-14T04:23:44;9.00;99.90
59556;DHT22;45374;52.746;6.304;2023-03-14T04:26:10;8.80;99.90
59556;DHT22;45374;52.746;6.304;2023-03-14T04:28:36;9.00;99.90
59556;DHT22;45374;52.746;6.304;2023-03-14T04:33:34;9.00;99.90
59556;DHT22;45374;52.746;6.304;2023-03-14T04:36:01;9.00;99.90
59556;DHT22;45374;52.746;6.304;2023-03-14T04:38:27;8.80;99.90
59556;DHT22;45374;52.746;6.304;2023-03-14T04:40:52;9.00;99.90
59556;DHT22;45374;52.746;6.304;2023-03-14T04:43:19;8.90;99.90
59556;DHT22;45374;52.746;6.304;2023-03-14T04:45:44;8.80;99.90
59556;DHT22;45374;52.746;6.304;2023-03-14T04:48:10;9.00;99.90
59556;DHT22;45374;52.746;6.304;2023-03-14T04:50:36;8.80;99.90
59556;DHT22;45374;52.746;6.304;2023-03-14T04:53:01;8.90;99.90
59556;DHT22;45374;52.746;6.304;2023-03-14T04:55:27;8.90;99.90
59556;DHT22;45374;52.746;6.304;2023-03-14T04:57:52;8.90;99.90
59556;DHT22;45374;52.746;6.304;2023-03-14T05:00:18;9.10;99.90
59556;DHT22;45374;52.746;6.304;2023-03-14T05:02:44;9.10;99.90
59556;DHT22;45374;52.746;6.304;2023-03-14T05:05:10;9.00;99.90
59556;DHT22;45374;52.746;6.304;2023-03-14T05:07:35;9.20;99.90
59556;DHT22;45374;52.746;6.304;2023-03-14T05:10:01;9.10;99.90
59556;DHT22;45374;52.746;6.304;2023-03-14T05:12:27;9.10;99.90
59556;DHT22;45374;52.746;6.304;2023-03-14T05:14:52;9.10;99.90
59556;DHT22;45374;52.746;6.304;2023-03-14T05:17:18;9.20;99.90
59556;DHT22;45374;52.746;6.304;2023-03-14T05:19:44;9.20;99.90
59556;DHT22;45374;52.746;6.304;2023-03-14T05:22:10;9.20;99.90
59556;DHT22;45374;52.746;6.304;2023-03-14T05:24:36;9.20;99.90
59556;DHT22;45374;52.746;6.304;2023-03-14T05:27:02;9.20;99.90
59556;DHT22;45374;52.746;6.304;2023-03-14T05:29:27;9.20;99.90
59556;DHT22;45374;52.746;6.304;2023-03-14T05:31:53;9.20;99.90
59556;DHT22;45374;52.746;6.304;2023-03-14T05:34:18;9.10;99.90
59556;DHT22;45374;52.746;6.304;2023-03-14T05:36:44;9.10;99.90
59556;DHT22;45374;52.746;6.304;2023-03-14T05:39:12;9.00;99.90
59556;DHT22;45374;52.746;6.304;2023-03-14T05:41:37;9.10;99.90
59556;DHT22;45374;52.746;6.304;2023-03-14T05:44:03;9.00;99.90
59556;DHT22;45374;52.746;6.304;2023-03-14T05:46:28;8.90;99.90
59556;DHT22;45374;52.746;6.304;2023-03-14T05:48:59;9.00;99.90
59556;DHT22;45374;52.746;6.304;2023-03-14T05:51:25;8.90;99.90
59556;DHT22;45374;52.746;6.304;2023-03-14T05:53:50;9.00;99.90
59556;DHT22;45374;52.746;6.304;2023-03-14T05:56:16;8.90;99.90
59556;DHT22;45374;52.746;6.304;2023-03-14T05:58:42;9.10;99.90
59556;DHT22;45374;52.746;6.304;2023-03-14T06:01:08;9.00;99.90
59556;DHT22;45374;52.746;6.304;2023-03-14T06:03:33;8.80;99.90
59556;DHT22;45374;52.746;6.304;2023-03-14T06:05:59;8.90;99.90
59556;DHT22;45374;52.746;6.304;2023-03-14T06:08:25;8.80;99.90
59556;DHT22;45374;52.746;6.304;2023-03-14T06:10:51;9.00;99.90
59556;DHT22;45374;52.746;6.304;2023-03-14T06:13:17;9.00;99.90
59556;DHT22;45374;52.746;6.304;2023-03-14T06:15:43;8.90;99.90
59556;DHT22;45374;52.746;6.304;2023-03-14T06:18:09;8.80;99.90
59556;DHT22;45374;52.746;6.304;2023-03-14T06:20:38;8.90;99.90
59556;DHT22;45374;52.746;6.304;2023-03-14T06:23:07;8.80;99.90
59556;DHT22;45374;52.746;6.304;2023-03-14T06:25:34;8.80;99.90
59556;DHT22;45374;52.746;6.304;2023-03-14T06:28:00;8.80;99.90
59556;DHT22;45374;52.746;6.304;2023-03-14T06:30:27;8.90;99.90
59556;DHT22;45374;52.746;6.304;2023-03-14T06:32:52;8.90;99.90
59556;DHT22;45374;52.746;6.304;2023-03-14T06:35:18;8.90;99.90
59556;DHT22;45374;52.746;6.304;2023-03-14T06:37:44;9.00;99.90
59556;DHT22;45374;52.746;6.304;2023-03-14T06:40:11;8.80;99.90
59556;DHT22;45374;52.746;6.304;2023-03-14T06:42:42;9.00;99.90
59556;DHT22;45374;52.746;6.304;2023-03-14T06:45:08;8.80;99.90
59556;DHT22;45374;52.746;6.304;2023-03-14T06:47:34;9.00;99.90
59556;DHT22;45374;52.746;6.304;2023-03-14T06:49:59;9.00;99.90
59556;DHT22;45374;52.746;6.304;2023-03-14T06:52:25;9.00;99.90
59556;DHT22;45374;52.746;6.304;2023-03-14T06:54:50;8.90;99.90
59556;DHT22;45374;52.746;6.304;2023-03-14T06:57:16;9.00;99.90
59556;DHT22;45374;52.746;6.304;2023-03-14T06:59:41;8.80;99.90
59556;DHT22;45374;52.746;6.304;2023-03-14T07:02:13;8.80;99.90
59556;DHT22;45374;52.746;6.304;2023-03-14T07:04:39;8.70;99.90
59556;DHT22;45374;52.746;6.304;2023-03-14T07:07:05;8.50;99.90
59556;DHT22;45374;52.746;6.304;2023-03-14T07:09:31;8.60;99.90
59556;DHT22;45374;52.746;6.304;2023-03-14T07:11:57;8.30;99.90
59556;DHT22;45374;52.746;6.304;2023-03-14T07:14:23;8.40;99.90
59556;DHT22;45374;52.746;6.304;2023-03-14T07:16:48;8.20;99.90
59556;DHT22;45374;52.746;6.304;2023-03-14T07:19:14;8.40;99.90
59556;DHT22;45374;52.746;6.304;2023-03-14T07:21:39;8.30;99.90
59556;DHT22;45374;52.746;6.304;2023-03-14T07:24:05;8.10;99.90
59556;DHT22;45374;52.746;6.304;2023-03-14T07:26:31;7.90;99.90
59556;DHT22;45374;52.746;6.304;2023-03-14T07:28:56;7.70;99.90
59556;DHT22;45374;52.746;6.304;2023-03-14T07:31:22;7.40;99.90
59556;DHT22;45374;52.746;6.304;2023-03-14T07:33:48;7.10;99.90
59556;DHT22;45374;52.746;6.304;2023-03-14T07:36:13;6.80;99.90
59556;DHT22;45374;52.746;6.304;2023-03-14T07:38:39;6.70;99.90
59556;DHT22;45374;52.746;6.304;2023-03-14T07:41:06;6.50;99.90
59556;DHT22;45374;52.746;6.304;2023-03-14T07:43:35;6.40;99.90
59556;DHT22;45374;52.746;6.304;2023-03-14T07:46:01;6.40;99.90
59556;DHT22;45374;52.746;6.304;2023-03-14T07:48:26;6.20;99.90
59556;DHT22;45374;52.746;6.304;2023-03-14T07:50:53;6.20;99.90
59556;DHT22;45374;52.746;6.304;2023-03-14T07:53:20;5.90;99.90
59556;DHT22;45374;52.746;6.304;2023-03-14T07:55:46;5.70;99.90
59556;DHT22;45374;52.746;6.304;2023-03-14T07:58:14;5.50;99.90
59556;DHT22;45374;52.746;6.304;2023-03-14T08:00:40;5.30;99.90
59556;DHT22;45374;52.746;6.304;2023-03-14T08:03:06;5.20;99.90
59556;DHT22;45374;52.746;6.304;2023-03-14T08:05:37;5.20;99.90
59556;DHT22;45374;52.746;6.304;2023-03-14T08:08:03;5.20;99.90
59556;DHT22;45374;52.746;6.304;2023-03-14T08:10:29;5.00;99.90
59556;DHT22;45374;52.746;6.304;2023-03-14T08:12:57;5.00;99.90
59556;DHT22;45374;52.746;6.304;2023-03-14T08:15:24;4.90;99.90
59556;DHT22;45374;52.746;6.304;2023-03-14T08:17:52;4.90;99.90
59556;DHT22;45374;52.746;6.304;2023-03-14T08:20:21;4.90;99.90
59556;DHT22;45374;52.746;6.304;2023-03-14T08:22:47;4.80;99.90
59556;DHT22;45374;52.746;6.304;2023-03-14T08:25:13;4.80;99.90
59556;DHT22;45374;52.746;6.304;2023-03-14T08:27:39;4.80;99.90
59556;DHT22;45374;52.746;6.304;2023-03-14T08:30:13;4.80;99.90
59556;DHT22;45374;52.746;6.304;2023-03-14T08:32:39;5.00;99.90
59556;DHT22;45374;52.746;6.304;2023-03-14T08:35:05;4.90;99.90
59556;DHT22;45374;52.746;6.304;2023-03-14T08:37:32;5.10;99.90
59556;DHT22;45374;52.746;6.304;2023-03-14T08:39:59;5.00;99.90
59556;DHT22;45374;52.746;6.304;2023-03-14T08:42:24;5.10;99.90
59556;DHT22;45374;52.746;6.304;2023-03-14T08:44:51;5.20;99.90
59556;DHT22;45374;52.746;6.304;2023-03-14T08:47:17;5.20;99.90
59556;DHT22;45374;52.746;6.304;2023-03-14T08:49:43;5.20;99.90
59556;DHT22;45374;52.746;6.304;2023-03-14T08:52:08;5.40;99.90
59556;DHT22;45374;52.746;6.304;2023-03-14T08:54:34;5.40;99.90
59556;DHT22;45374;52.746;6.304;2023-03-14T08:57:00;5.50;99.90
59556;DHT22;45374;52.746;6.304;2023-03-14T08:59:25;5.60;99.90
59556;DHT22;45374;52.746;6.304;2023-03-14T09:01:51;5.60;99.90
59556;DHT22;45374;52.746;6.304;2023-03-14T09:04:17;5.70;99.90
59556;DHT22;45374;52.746;6.304;2023-03-14T09:06:42;5.60;99.90
59556;DHT22;45374;52.746;6.304;2023-03-14T09:09:08;5.70;99.90
59556;DHT22;45374;52.746;6.304;2023-03-14T09:11:34;5.80;99.90
59556;DHT22;45374;52.746;6.304;2023-03-14T09:14:00;5.80;99.90
59556;DHT22;45374;52.746;6.304;2023-03-14T09:16:26;5.90;99.90
59556;DHT22;45374;52.746;6.304;2023-03-14T09:18:52;6.00;99.90
59556;DHT22;45374;52.746;6.304;2023-03-14T09:21:22;6.10;99.90
59556;DHT22;45374;52.746;6.304;2023-03-14T09:23:48;6.30;99.90
59556;DHT22;45374;52.746;6.304;2023-03-14T09:26:14;6.30;99.90
59556;DHT22;45374;52.746;6.304;2023-03-14T09:28:41;6.40;99.90
59556;DHT22;45374;52.746;6.304;2023-03-14T09:31:15;6.40;99.90
59556;DHT22;45374;52.746;6.304;2023-03-14T09:33:41;6.50;99.90
59556;DHT22;45374;52.746;6.304;2023-03-14T09:36:07;6.50;99.90
59556;DHT22;45374;52.746;6.304;2023-03-14T09:38:33;6.50;99.90
59556;DHT22;45374;52.746;6.304;2023-03-14T09:41:01;6.60;99.90
59556;DHT22;45374;52.746;6.304;2023-03-14T09:43:30;6.60;99.90
59556;DHT22;45374;52.746;6.304;2023-03-14T09:45:57;6.60;99.90
59556;DHT22;45374;52.746;6.304;2023-03-14T09:48:27;6.70;99.90
59556;DHT22;45374;52.746;6.304;2023-03-14T09:50:55;6.70;99.90
59556;DHT22;45374;52.746;6.304;2023-03-14T09:53:31;6.70;99.90
59556;DHT22;45374;52.746;6.304;2023-03-14T09:55:59;6.70;99.90
59556;DHT22;45374;52.746;6.304;2023-03-14T09:58:25;6.60;99.90
59556;DHT22;45374;52.746;6.304;2023-03-14T10:00:53;6.30;99.90
59556;DHT22;45374;52.746;6.304;2023-03-14T10:03:32;6.00;99.90
59556;DHT22;45374;52.746;6.304;2023-03-14T10:05:58;5.90;99.90
59556;DHT22;45374;52.746;6.304;2023-03-14T10:08:24;6.00;99.90
59556;DHT22;45374;52.746;6.304;2023-03-14T10:10:50;6.20;99.90
59556;DHT22;45374;52.746;6.304;2023-03-14T10:13:25;6.30;99.90
59556;DHT22;45374;52.746;6.304;2023-03-14T10:15:55;6.40;99.90
59556;DHT22;45374;52.746;6.304;2023-03-14T10:18:23;6.30;99.90
59556;DHT22;45374;52.746;6.304;2023-03-14T10:20:51;6.30;99.90
59556;DHT22;45374;52.746;6.304;2023-03-14T10:23:29;6.30;99.90
59556;DHT22;45374;52.746;6.304;2023-03-14T10:26:07;6.40;99.90
59556;DHT22;45374;52.746;6.304;2023-03-14T10:28:39;6.50;99.90
59556;DHT22;45374;52.746;6.304;2023-03-14T10:31:05;6.60;99.90
59556;DHT22;45374;52.746;6.304;2023-03-14T10:33:33;6.50;99.90
59556;DHT22;45374;52.746;6.304;2023-03-14T10:36:05;6.50;99.90
59556;DHT22;45374;52.746;6.304;2023-03-14T10:38:40;6.50;99.90
59556;DHT22;45374;52.746;6.304;2023-03-14T10:41:26;6.60;99.90
59556;DHT22;45374;52.746;6.304;2023-03-14T10:43:58;6.70;99.90
59556;DHT22;45374;52.746;6.304;2023-03-14T10:46:25;6.70;99.90
59556;DHT22;45374;52.746;6.304;2023-03-14T10:48:52;6.80;99.90
59556;DHT22;45374;52.746;6.304;2023-03-14T10:51:29;6.80;99.90
59556;DHT22;45374;52.746;6.304;2023-03-14T10:56:27;7.00;99.90
59556;DHT22;45374;52.746;6.304;2023-03-14T10:58:56;7.10;99.90
59556;DHT22;45374;52.746;6.304;2023-03-14T11:04:29;7.20;99.90
59556;DHT22;45374;52.746;6.304;2023-03-14T11:07:06;7.20;99.90
59556;DHT22;45374;52.746;6.304;2023-03-14T11:13:00;7.00;99.90
59556;DHT22;45374;52.746;6.304;2023-03-14T11:15:51;7.00;99.90
59556;DHT22;45374;52.746;6.304;2023-03-14T11:24:15;7.10;99.90
59556;DHT22;45374;52.746;6.304;2023-03-14T11:26:49;7.00;99.90
59556;DHT22;45374;52.746;6.304;2023-03-14T11:32:44;6.90;99.90
59556;DHT22;45374;52.746;6.304;2023-03-14T11:35:30;6.80;99.90
59556;DHT22;45374;52.746;6.304;2023-03-14T11:38:03;6.90;99.90
59556;DHT22;45374;52.746;6.304;2023-03-14T11:40:31;7.00;99.90
59556;DHT22;45374;52.746;6.304;2023-03-14T11:43:09;7.00;99.90
59556;DHT22;45374;52.746;6.304;2023-03-14T11:45:37;7.10;99.90
59556;DHT22;45374;52.746;6.304;2023-03-14T11:48:17;7.20;99.90
59556;DHT22;45374;52.746;6.304;2023-03-14T11:50:46;7.40;99.90
59556;DHT22;45374;52.746;6.304;2023-03-14T11:53:21;7.60;99.90
59556;DHT22;45374;52.746;6.304;2023-03-14T11:55:47;7.60;99.90
59556;DHT22;45374;52.746;6.304;2023-03-14T12:00:41;7.30;99.90
59556;DHT22;45374;52.746;6.304;2023-03-14T12:13:50;7.20;99.90
59556;DHT22;45374;52.746;6.304;2023-03-14T12:18:49;7.30;99.90
59556;DHT22;45374;52.746;6.304;2023-03-14T12:21:16;7.40;99.90
59556;DHT22;45374;52.746;6.304;2023-03-14T12:23:53;7.50;99.90
59556;DHT22;45374;52.746;6.304;2023-03-14T12:26:27;7.50;99.90
59556;DHT22;45374;52.746;6.304;2023-03-14T12:29:15;7.40;99.90
59556;DHT22;45374;52.746;6.304;2023-03-14T12:31:42;7.50;99.90
59556;DHT22;45374;52.746;6.304;2023-03-14T12:44:44;7.50;99.90
59556;DHT22;45374;52.746;6.304;2023-03-14T12:47:41;7.60;99.90
59556;DHT22;45374;52.746;6.304;2023-03-14T12:50:20;7.90;99.90
59556;DHT22;45374;52.746;6.304;2023-03-14T12:55:36;7.90;99.90
59556;DHT22;45374;52.746;6.304;2023-03-14T12:58:35;7.60;99.90
59556;DHT22;45374;52.746;6.304;2023-03-14T13:01:04;7.30;99.90
59556;DHT22;45374;52.746;6.304;2023-03-14T13:03:49;7.30;99.90
59556;DHT22;45374;52.746;6.304;2023-03-14T13:06:51;7.30;99.90
59556;DHT22;45374;52.746;6.304;2023-03-14T13:12:10;7.10;99.90
59556;DHT22;45374;52.746;6.304;2023-03-14T13:14:41;7.00;99.90
59556;DHT22;45374;52.746;6.304;2023-03-14T13:17:15;6.70;99.90
59556;DHT22;45374;52.746;6.304;2023-03-14T13:19:51;6.60;99.90
59556;DHT22;45374;52.746;6.304;2023-03-14T13:22:24;6.70;99.90
59556;DHT22;45374;52.746;6.304;2023-03-14T13:24:57;7.10;99.90
59556;DHT22;45374;52.746;6.304;2023-03-14T13:27:23;7.30;99.90
59556;DHT22;45374;52.746;6.304;2023-03-14T13:29:51;7.40;99.90
59556;DHT22;45374;52.746;6.304;2023-03-14T13:32:20;7.50;99.90
59556;DHT22;45374;52.746;6.304;2023-03-14T13:34:46;7.40;99.90
59556;DHT22;45374;52.746;6.304;2023-03-14T13:37:22;7.40;99.90
59556;DHT22;45374;52.746;6.304;2023-03-14T13:39:56;7.40;99.90
59556;DHT22;45374;52.746;6.304;2023-03-14T13:42:27;7.50;99.90
59556;DHT22;45374;52.746;6.304;2023-03-14T13:44:55;7.50;99.90
59556;DHT22;45374;52.746;6.304;2023-03-14T13:47:24;7.50;99.90
59556;DHT22;45374;52.746;6.304;2023-03-14T13:49:50;7.40;99.90
59556;DHT22;45374;52.746;6.304;2023-03-14T13:52:35;7.30;99.90
59556;DHT22;45374;52.746;6.304;2023-03-14T13:55:02;7.00;99.90
59556;DHT22;45374;52.746;6.304;2023-03-14T13:57:49;6.80;99.90
59556;DHT22;45374;52.746;6.304;2023-03-14T14:02:49;6.70;99.90
59556;DHT22;45374;52.746;6.304;2023-03-14T14:05:17;6.60;99.90
59556;DHT22;45374;52.746;6.304;2023-03-14T14:07:43;6.50;99.90
59556;DHT22;45374;52.746;6.304;2023-03-14T14:10:12;6.50;99.90
59556;DHT22;45374;52.746;6.304;2023-03-14T14:12:57;6.60;99.90
59556;DHT22;45374;52.746;6.304;2023-03-14T14:15:30;6.70;99.90
59556;DHT22;45374;52.746;6.304;2023-03-14T14:17:57;6.70;99.90
59556;DHT22;45374;52.746;6.304;2023-03-14T14:20:35;6.60;99.90
59556;DHT22;45374;52.746;6.304;2023-03-14T14:23:09;6.50;99.90
59556;DHT22;45374;52.746;6.304;2023-03-14T14:25:36;6.40;99.90
59556;DHT22;45374;52.746;6.304;2023-03-14T14:28:26;6.30;99.90
59556;DHT22;45374;52.746;6.304;2023-03-14T14:36:38;6.70;99.90
59556;DHT22;45374;52.746;6.304;2023-03-14T14:39:28;7.20;99.90
59556;DHT22;45374;52.746;6.304;2023-03-14T14:41:56;7.30;99.90
59556;DHT22;45374;52.746;6.304;2023-03-14T14:44:29;7.10;99.90
59556;DHT22;45374;52.746;6.304;2023-03-14T14:46:55;6.80;99.90
59556;DHT22;45374;52.746;6.304;2023-03-14T14:49:27;6.60;99.90
59556;DHT22;45374;52.746;6.304;2023-03-14T14:52:02;6.50;99.90
59556;DHT22;45374;52.746;6.304;2023-03-14T14:54:36;6.40;99.90
59556;DHT22;45374;52.746;6.304;2023-03-14T14:57:05;6.50;99.90
59556;DHT22;45374;52.746;6.304;2023-03-14T14:59:31;6.60;99.90
59556;DHT22;45374;52.746;6.304;2023-03-14T15:02:00;6.60;99.90
59556;DHT22;45374;52.746;6.304;2023-03-14T15:04:27;6.60;99.90
59556;DHT22;45374;52.746;6.304;2023-03-14T15:06:54;6.50;99.90
59556;DHT22;45374;52.746;6.304;2023-03-14T15:09:22;6.50;99.90
59556;DHT22;45374;52.746;6.304;2023-03-14T15:11:49;6.70;99.90
59556;DHT22;45374;52.746;6.304;2023-03-14T15:14:15;7.00;99.90
59556;DHT22;45374;52.746;6.304;2023-03-14T15:16:40;7.20;99.90
59556;DHT22;45374;52.746;6.304;2023-03-14T15:19:19;7.20;99.90
59556;DHT22;45374;52.746;6.304;2023-03-14T15:21:45;7.20;99.90
59556;DHT22;45374;52.746;6.304;2023-03-14T15:24:10;6.90;99.90
59556;DHT22;45374;52.746;6.304;2023-03-14T15:26:39;6.70;99.90
59556;DHT22;45374;52.746;6.304;2023-03-14T15:29:05;6.60;99.90
59556;DHT22;45374;52.746;6.304;2023-03-14T15:31:34;6.40;99.90
59556;DHT22;45374;52.746;6.304;2023-03-14T15:33:59;6.20;99.90
59556;DHT22;45374;52.746;6.304;2023-03-14T15:36:28;5.90;99.90
59556;DHT22;45374;52.746;6.304;2023-03-14T15:38:54;5.70;99.90
59556;DHT22;45374;52.746;6.304;2023-03-14T15:41:21;5.60;99.90
59556;DHT22;45374;52.746;6.304;2023-03-14T15:43:48;5.70;99.90
59556;DHT22;45374;52.746;6.304;2023-03-14T15:46:14;5.80;99.90
59556;DHT22;45374;52.746;6.304;2023-03-14T15:48:40;5.80;99.90
59556;DHT22;45374;52.746;6.304;2023-03-14T15:51:06;5.90;99.90
59556;DHT22;45374;52.746;6.304;2023-03-14T15:53:32;5.90;99.90
59556;DHT22;45374;52.746;6.304;2023-03-14T15:55:58;5.80;99.90
59556;DHT22;45374;52.746;6.304;2023-03-14T15:58:23;5.90;99.90
59556;DHT22;45374;52.746;6.304;2023-03-14T16:00:50;6.00;99.90
59556;DHT22;45374;52.746;6.304;2023-03-14T16:03:16;6.10;99.90
59556;DHT22;45374;52.746;6.304;2023-03-14T16:05:41;6.20;99.90
59556;DHT22;45374;52.746;6.304;2023-03-14T16:08:07;6.10;99.90
59556;DHT22;45374;52.746;6.304;2023-03-14T16:10:33;6.20;99.90
59556;DHT22;45374;52.746;6.304;2023-03-14T16:12:59;6.20;99.90
59556;DHT22;45374;52.746;6.304;2023-03-14T16:15:24;6.10;99.90
59556;DHT22;45374;52.746;6.304;2023-03-14T16:17:54;6.00;99.90
59556;DHT22;45374;52.746;6.304;2023-03-14T16:20:21;5.90;99.90
59556;DHT22;45374;52.746;6.304;2023-03-14T16:22:47;5.90;99.90
59556;DHT22;45374;52.746;6.304;2023-03-14T16:25:13;5.80;99.90
59556;DHT22;45374;52.746;6.304;2023-03-14T16:27:39;5.80;99.90
59556;DHT22;45374;52.746;6.304;2023-03-14T16:30:05;5.80;99.90
59556;DHT22;45374;52.746;6.304;2023-03-14T16:32:31;5.70;99.90
59556;DHT22;45374;52.746;6.304;2023-03-14T16:34:57;5.60;99.90
59556;DHT22;45374;52.746;6.304;2023-03-14T16:37:23;5.70;99.90
59556;DHT22;45374;52.746;6.304;2023-03-14T16:39:49;5.70;99.90
59556;DHT22;45374;52.746;6.304;2023-03-14T16:42:15;5.70;99.90
59556;DHT22;45374;52.746;6.304;2023-03-14T16:44:41;5.80;99.90
59556;DHT22;45374;52.746;6.304;2023-03-14T16:47:07;5.80;99.90
59556;DHT22;45374;52.746;6.304;2023-03-14T16:49:33;5.90;99.90
59556;DHT22;45374;52.746;6.304;2023-03-14T16:51:59;5.90;99.90
59556;DHT22;45374;52.746;6.304;2023-03-14T16:54:24;6.00;99.90
59556;DHT22;45374;52.746;6.304;2023-03-14T16:56:50;6.00;99.90
59556;DHT22;45374;52.746;6.304;2023-03-14T16:59:18;6.00;99.90